Corona, New Mexico
Current Conditions -  °F | °C
As of 2:53 PM on Sunday 23 Nov 2014 (Local Time) from KCQC Reporting Station
Clear Clear  
Wind Chill: 24°   Ceiling: Unl
Heat Index: 38°   Visibility: 10mi
Dew Point: 10°   Wind: 38mph
Humidity: 32%   Direction: 290°WNW
Pressure: 29.78"   Gusts: 48mph
Location:  34.25°N, 105.6°W
Report Text: KCQC 232153Z AUTO 29033G42KT 10SM CLR 03/M12 A2978 RMK AO2 PK WND 30042/2134 SLP065 T00331122
Loading
Personal Weather Stations






























Interactive Weather Map New forecast layout! Learn more

10-Day Weather Forecast

Advertisements
Track Severe Weather on mobile